createdAt,value
2023-01-11T00:04:03.581Z,14.75
2023-01-11T00:11:22.033Z,14.90
2023-01-11T00:18:42.149Z,13.80
2023-01-11T00:26:00.447Z,13.32
2023-01-11T00:33:18.647Z,12.65
2023-01-11T00:40:38.236Z,14.82
2023-01-11T00:48:00.457Z,12.32
2023-01-11T00:55:18.787Z,11.80
2023-01-11T01:02:38.460Z,11.80
2023-01-11T01:09:56.653Z,11.05
2023-01-11T01:17:14.781Z,11.77
2023-01-11T01:24:34.455Z,10.80
2023-01-11T01:31:52.744Z,10.82
2023-01-11T01:39:12.575Z,10.65
2023-01-11T01:46:35.952Z,8.77
2023-01-11T01:53:55.583Z,8.70
2023-01-11T02:01:32.458Z,9.65
2023-01-11T02:08:57.838Z,8.93
2023-01-11T02:16:16.093Z,6.95
2023-01-11T02:24:10.664Z,7.35
2023-01-11T02:31:34.944Z,6.18
2023-01-11T02:39:02.019Z,6.68
2023-01-11T02:46:26.460Z,6.15
2023-01-11T02:53:49.092Z,6.55
2023-01-11T03:01:08.627Z,6.77
2023-01-11T03:08:35.838Z,7.07
2023-01-11T03:16:10.311Z,6.78
2023-01-11T03:23:32.456Z,7.00
2023-01-11T03:30:53.301Z,7.82
2023-01-11T03:38:14.399Z,8.70
2023-01-11T03:45:34.728Z,8.20
2023-01-11T03:52:53.967Z,7.15
2023-01-11T04:00:14.960Z,7.20
2023-01-11T04:07:33.311Z,5.07
2023-01-11T04:14:51.583Z,5.28
2023-01-11T04:22:11.535Z,5.15
2023-01-11T04:29:29.708Z,4.93
2023-01-11T04:36:50.986Z,5.85
2023-01-11T04:44:10.840Z,5.53
2023-01-11T04:51:29.143Z,5.38
2023-01-11T04:58:47.354Z,5.88
2023-01-11T05:06:07.585Z,5.90
2023-01-11T05:13:41.790Z,5.75
2023-01-11T05:20:59.979Z,6.15
2023-01-11T05:28:19.649Z,6.40
2023-01-11T05:35:37.892Z,5.60
2023-01-11T05:42:56.190Z,4.80
2023-01-11T05:50:15.921Z,5.70
2023-01-11T05:57:34.173Z,5.82
2023-01-11T06:04:54.370Z,4.90
2023-01-11T06:12:14.905Z,5.45
2023-01-11T06:19:33.208Z,4.93
2023-01-11T06:26:53.745Z,4.10
2023-01-11T06:34:13.815Z,3.33
2023-01-11T06:41:32.074Z,3.30
2023-01-11T06:48:50.238Z,3.58
2023-01-11T06:56:12.774Z,3.58
2023-01-11T07:03:30.960Z,2.93
2023-01-11T07:10:49.297Z,4.00
2023-01-11T07:18:09.887Z,3.85
2023-01-11T07:25:28.782Z,4.30
2023-01-11T07:32:47.054Z,4.60
2023-01-11T07:40:07.877Z,3.65
2023-01-11T07:47:26.438Z,4.05
2023-01-11T07:54:44.617Z,4.15
2023-01-11T08:02:04.181Z,3.60
2023-01-11T08:09:22.414Z,3.67
2023-01-11T08:16:40.893Z,4.05
2023-01-11T08:24:01.102Z,4.47
2023-01-11T08:31:19.398Z,4.50
2023-01-11T08:38:38.319Z,4.28
2023-01-11T08:45:57.982Z,4.05
2023-01-11T08:53:16.912Z,4.13
2023-01-11T09:00:35.322Z,3.78
2023-01-11T09:07:57.446Z,3.97
2023-01-11T09:15:15.661Z,3.65
2023-01-11T09:22:33.969Z,3.50
2023-01-11T09:29:53.566Z,3.58
2023-01-11T09:37:11.773Z,2.72
2023-01-11T09:44:30.950Z,3.35
2023-01-11T09:51:51.623Z,3.10
2023-01-11T09:59:20.333Z,2.60
2023-01-11T10:06:46.660Z,3.72
2023-01-11T10:18:30.858Z,3.28
2023-01-11T10:21:55.352Z,3.60
2023-01-11T10:29:38.848Z,4.50
2023-01-11T10:37:17.115Z,4.18
2023-01-11T10:44:40.209Z,4.05
2023-01-11T10:52:02.066Z,3.47
2023-01-11T10:59:29.968Z,2.90
2023-01-11T11:06:55.731Z,3.50
2023-01-11T11:14:18.690Z,3.10
2023-01-11T11:21:39.802Z,2.20
2023-01-11T11:29:03.972Z,3.05
2023-01-11T11:36:22.298Z,3.03
2023-01-11T11:43:41.540Z,2.90
2023-01-11T11:51:03.198Z,3.15
2023-01-11T11:58:23.404Z,3.75
2023-01-11T12:05:50.420Z,3.33
2023-01-11T12:13:27.487Z,3.15
2023-01-11T12:20:47.622Z,3.80
2023-01-11T12:28:13.643Z,3.22
2023-01-11T12:35:36.503Z,2.90
2023-01-11T12:43:29.609Z,2.57
2023-01-11T12:51:08.633Z,2.40
2023-01-11T12:58:33.155Z,2.45
2023-01-11T13:06:00.636Z,2.50
2023-01-11T13:13:21.736Z,2.17
2023-01-11T13:21:00.080Z,2.38
2023-01-11T13:28:26.592Z,2.33
2023-01-11T13:35:50.096Z,2.58
2023-01-11T13:50:31.675Z,2.72
2023-01-11T13:57:55.057Z,3.80
2023-01-11T14:05:16.235Z,3.80
2023-01-11T14:12:46.227Z,4.18
2023-01-11T14:20:13.041Z,3.47
2023-01-11T14:27:55.996Z,3.97
2023-01-11T14:35:38.905Z,4.03
2023-01-11T14:43:29.557Z,4.70
2023-01-11T14:51:17.916Z,5.72
2023-01-11T14:58:36.090Z,6.22
2023-01-11T15:05:56.923Z,5.28
2023-01-11T15:13:20.834Z,5.32
2023-01-11T15:20:51.394Z,5.85
2023-01-11T15:28:36.857Z,6.07
2023-01-11T15:36:03.050Z,6.72
2023-01-11T15:43:48.031Z,5.82
2023-01-11T15:51:35.374Z,6.60
2023-01-11T15:59:36.103Z,6.90
2023-01-11T16:06:59.513Z,7.50
2023-01-11T16:14:34.322Z,7.57
2023-01-11T16:21:55.622Z,7.05
2023-01-11T16:29:20.097Z,6.72
2023-01-11T16:36:41.836Z,6.38
2023-01-11T16:44:02.409Z,5.78
2023-01-11T16:51:22.554Z,5.50
2023-01-11T16:58:41.318Z,5.53
2023-01-11T17:06:18.668Z,5.28
2023-01-11T17:13:56.031Z,5.10
2023-01-11T17:21:22.333Z,4.25
2023-01-11T17:28:40.547Z,3.90
2023-01-11T17:36:00.886Z,4.18
2023-01-11T17:43:39.844Z,4.40
2023-01-11T17:51:00.822Z,4.55
2023-01-11T17:58:26.485Z,6.50
2023-01-11T18:05:45.373Z,5.95
2023-01-11T18:13:05.299Z,5.75
2023-01-11T18:20:38.558Z,6.38
2023-01-11T18:28:29.458Z,6.65
2023-01-11T18:35:49.509Z,7.28
2023-01-11T18:43:07.905Z,6.10
2023-01-11T18:50:27.764Z,6.47
2023-01-11T18:57:47.632Z,7.10
2023-01-11T19:05:06.288Z,6.57
2023-01-11T19:12:26.139Z,6.50
2023-01-11T19:19:44.723Z,7.07
2023-01-11T19:27:03.542Z,6.95
2023-01-11T19:34:23.665Z,6.30
2023-01-11T19:41:58.036Z,6.30
2023-01-11T19:49:16.347Z,4.65
2023-01-11T19:56:36.004Z,4.85
2023-01-11T20:03:54.374Z,4.78
2023-01-11T20:11:15.587Z,5.65
2023-01-11T20:18:35.272Z,6.28
2023-01-11T20:25:59.413Z,7.82
2023-01-11T20:33:17.918Z,6.72
2023-01-11T20:40:39.712Z,6.00
2023-01-11T20:47:58.142Z,8.13
2023-01-11T20:55:17.078Z,7.93
2023-01-11T21:02:37.075Z,8.20
2023-01-11T21:09:55.568Z,8.05
2023-01-11T21:17:14.028Z,9.15
2023-01-11T21:24:34.089Z,10.13
2023-01-11T21:31:52.321Z,10.00
2023-01-11T21:39:13.903Z,9.82
2023-01-11T21:46:33.668Z,10.77
2023-01-11T21:53:51.904Z,10.90
2023-01-11T22:01:13.850Z,10.15
2023-01-11T22:08:35.540Z,10.98
2023-01-11T22:15:53.831Z,11.68
2023-01-11T22:23:12.100Z,11.40
2023-01-11T22:30:31.743Z,11.23
2023-01-11T22:37:50.410Z,13.27
2023-01-11T22:45:10.511Z,12.30
2023-01-11T22:52:34.440Z,11.52
2023-01-11T22:59:54.890Z,10.38
2023-01-11T23:07:13.148Z,10.77
2023-01-11T23:14:34.270Z,11.18
2023-01-11T23:21:52.769Z,11.30
2023-01-11T23:29:22.686Z,10.77
2023-01-11T23:36:43.931Z,13.27
2023-01-11T23:44:02.821Z,12.63
2023-01-11T23:51:21.004Z,13.82
2023-01-11T23:58:40.619Z,13.00
